Time;durP1;ratioP1;P1;durP2;ratioP2;P2;SDS_P1;SDS_P2;PMS_P1;PMS_P2;Temp;Humidity;BMP_temperature;BMP_pressure;BME280_temperature;BME280_humidity;BME280_pressure;Samples;Min_cycle;Max_cycle;Signal;HPM_P1;HPM_P2
2021/08/29 00:01:25;;;;;;;31.48;18.35;;;;;;;;;;5053351;28;20051;-60
2021/08/29 00:03:51;;;;;;;31.02;18.88;;;;;;;;;;5057224;28;20044;-60
2021/08/29 00:06:18;;;;;;;34.08;20.13;;;;;;;;;;5057725;28;20103;-60
2021/08/29 00:08:44;;;;;;;32.20;20.52;;;;;;;;;;5058721;28;20051;-60
2021/08/29 00:11:10;;;;;;;33.65;21.27;;;;;;;;;;5057562;28;20032;-60
2021/08/29 00:13:37;;;;;;;36.20;21.88;;;;;;;;;;5054550;28;20049;-60
2021/08/29 00:16:03;;;;;;;35.55;22.13;;;;;;;;;;5068372;28;20044;-60
2021/08/29 00:18:29;;;;;;;34.88;21.45;;;;;;;;;;5057146;28;20049;-60
2021/08/29 00:20:56;;;;;;;28.23;19.58;;;;;;;;;;5056934;28;20407;-59
2021/08/29 00:23:22;;;;;;;31.17;19.83;;;;;;;;;;5056872;28;20036;-59
2021/08/29 00:25:48;;;;;;;30.80;20.30;;;;;;;;;;5055140;28;20068;-59
2021/08/29 00:28:15;;;;;;;36.88;21.60;;;;;;;;;;5058691;28;20095;-60
2021/08/29 00:30:41;;;;;;;31.17;20.15;;;;;;;;;;5055939;28;20099;-59
2021/08/29 00:33:07;;;;;;;30.58;20.02;;;;;;;;;;5056855;28;20040;-60
2021/08/29 00:35:34;;;;;;;27.88;19.67;;;;;;;;;;5057554;28;20463;-59
2021/08/29 00:38:00;;;;;;;32.38;20.67;;;;;;;;;;5057383;28;20430;-59
2021/08/29 00:40:27;;;;;;;32.33;20.73;;;;;;;;;;5052663;28;20052;-60
2021/08/29 00:42:53;;;;;;;31.83;19.48;;;;;;;;;;5054633;28;20080;-60
2021/08/29 00:45:26;;;;;;;32.80;20.70;;;;;;;;;;5070783;28;20049;-60
2021/08/29 00:47:53;;;;;;;32.03;19.60;;;;;;;;;;5063574;28;20040;-60
2021/08/29 00:50:19;;;;;;;37.63;19.70;;;;;;;;;;5063501;28;20559;-60
2021/08/29 00:52:46;;;;;;;32.50;19.77;;;;;;;;;;5069978;28;20545;-60
2021/08/29 00:55:13;;;;;;;32.10;19.65;;;;;;;;;;5052716;28;20045;-60
2021/08/29 00:57:45;;;;;;;31.92;18.88;;;;;;;;;;5054673;28;20056;-60
2021/08/29 01:00:14;;;;;;;26.08;17.58;;;;;;;;;;5053778;28;20105;-60
2021/08/29 01:02:44;;;;;;;31.20;17.60;;;;;;;;;;5057317;28;20067;-60
2021/08/29 01:05:12;;;;;;;27.58;17.88;;;;;;;;;;5062422;28;20060;-60
2021/08/29 01:07:52;;;;;;;27.10;17.80;;;;;;;;;;5062793;28;20052;-60
2021/08/29 01:10:21;;;;;;;28.42;18.58;;;;;;;;;;5057095;28;20080;-60
2021/08/29 01:12:55;;;;;;;28.80;17.20;;;;;;;;;;5067353;28;20132;-60
2021/08/29 01:15:23;;;;;;;26.23;17.90;;;;;;;;;;5083980;28;20134;-60
2021/08/29 01:17:51;;;;;;;26.65;17.33;;;;;;;;;;5057429;28;20053;-60
2021/08/29 01:20:18;;;;;;;27.25;16.55;;;;;;;;;;5066954;28;20546;-60
2021/08/29 01:22:46;;;;;;;26.65;17.17;;;;;;;;;;5053931;28;20091;-60
2021/08/29 01:25:15;;;;;;;24.35;16.52;;;;;;;;;;5052513;28;20045;-60
2021/08/29 01:27:49;;;;;;;32.28;17.13;;;;;;;;;;5055452;28;20052;-60
2021/08/29 01:30:16;;;;;;;26.92;16.50;;;;;;;;;;5065275;28;20064;-60
2021/08/29 01:32:43;;;;;;;31.63;16.60;;;;;;;;;;5062898;28;20090;-60
2021/08/29 01:35:10;;;;;;;25.70;15.80;;;;;;;;;;5063287;28;20041;-60
2021/08/29 01:37:51;;;;;;;28.38;16.60;;;;;;;;;;5069752;28;20048;-60
2021/08/29 01:40:18;;;;;;;26.00;16.50;;;;;;;;;;5052883;28;20055;-60
2021/08/29 01:42:44;;;;;;;23.50;15.40;;;;;;;;;;5056372;28;20053;-60
2021/08/29 01:45:11;;;;;;;21.70;14.40;;;;;;;;;;5056555;28;20045;-60
2021/08/29 01:47:42;;;;;;;25.70;16.73;;;;;;;;;;5056261;28;20475;-60
2021/08/29 01:50:10;;;;;;;30.52;17.48;;;;;;;;;;5052927;28;20053;-60
2021/08/29 01:52:39;;;;;;;29.88;16.25;;;;;;;;;;5067282;28;20052;-60
2021/08/29 01:55:37;;;;;;;26.25;16.45;;;;;;;;;;5045838;28;20135;-60
2021/08/29 01:58:09;;;;;;;25.83;15.40;;;;;;;;;;5064748;28;20056;-60
2021/08/29 02:00:45;;;;;;;25.50;16.80;;;;;;;;;;5065358;28;20102;-60
2021/08/29 02:03:12;;;;;;;24.63;15.65;;;;;;;;;;5066077;28;20088;-60
2021/08/29 02:05:40;;;;;;;27.15;16.05;;;;;;;;;;5066552;28;20049;-60
2021/08/29 02:08:07;;;;;;;27.83;15.50;;;;;;;;;;5071828;28;20044;-60
2021/08/29 02:10:36;;;;;;;24.58;15.18;;;;;;;;;;5056497;28;20044;-60
2021/08/29 02:13:20;;;;;;;20.98;13.68;;;;;;;;;;5071204;28;20454;-60
2021/08/29 02:15:52;;;;;;;22.55;15.20;;;;;;;;;;5058637;28;20080;-60
2021/08/29 02:18:20;;;;;;;23.20;14.55;;;;;;;;;;5059638;28;20056;-60
2021/08/29 02:20:49;;;;;;;26.02;15.57;;;;;;;;;;5060810;28;20084;-60
2021/08/29 02:23:16;;;;;;;28.67;15.70;;;;;;;;;;5065262;28;20045;-60
2021/08/29 02:25:46;;;;;;;27.17;15.82;;;;;;;;;;5069361;28;20116;-60
2021/08/29 02:28:14;;;;;;;27.27;15.95;;;;;;;;;;5054739;28;20049;-60
2021/08/29 02:30:41;;;;;;;25.48;15.13;;;;;;;;;;5068271;28;20055;-60
2021/08/29 02:33:12;;;;;;;21.33;14.38;;;;;;;;;;5066062;28;20052;-60
2021/08/29 02:35:41;;;;;;;22.88;14.45;;;;;;;;;;5066514;28;20080;-60
2021/08/29 02:38:10;;;;;;;23.80;14.63;;;;;;;;;;5061491;28;20119;-60
2021/08/29 02:40:38;;;;;;;20.27;13.32;;;;;;;;;;5056157;28;20080;-60
2021/08/29 02:43:07;;;;;;;21.02;13.85;;;;;;;;;;5056038;28;20088;-60
2021/08/29 02:45:35;;;;;;;23.35;13.45;;;;;;;;;;5058010;28;20092;-60
2021/08/29 02:48:01;;;;;;;21.23;14.13;;;;;;;;;;5062881;28;20056;-60
2021/08/29 02:50:37;;;;;;;21.33;14.60;;;;;;;;;;5067919;28;20075;-60
2021/08/29 02:53:06;;;;;;;23.20;14.65;;;;;;;;;;5066156;28;20045;-60
2021/08/29 02:55:32;;;;;;;25.40;13.77;;;;;;;;;;5070096;28;20069;-60
2021/08/29 02:58:05;;;;;;;27.98;13.43;;;;;;;;;;5058207;28;20111;-60
2021/08/29 03:00:50;;;;;;;20.17;12.52;;;;;;;;;;5066231;28;20410;-60
2021/08/29 03:03:30;;;;;;;25.00;14.23;;;;;;;;;;5059755;28;20144;-60
2021/08/29 03:05:58;;;;;;;25.35;14.10;;;;;;;;;;5060578;28;20049;-60
2021/08/29 03:08:24;;;;;;;20.65;13.38;;;;;;;;;;5060893;28;20059;-60
2021/08/29 03:10:51;;;;;;;21.40;12.55;;;;;;;;;;5053631;28;20508;-60
2021/08/29 03:13:18;;;;;;;22.52;13.55;;;;;;;;;;5102635;28;20057;-60
2021/08/29 03:15:49;;;;;;;23.15;13.20;;;;;;;;;;5060417;28;20514;-60
2021/08/29 03:18:55;;;;;;;21.97;13.27;;;;;;;;;;5061383;28;20560;-60
2021/08/29 03:21:53;;;;;;;21.80;12.57;;;;;;;;;;5027467;28;20143;-60
2021/08/29 03:24:20;;;;;;;20.23;12.02;;;;;;;;;;5011449;28;20479;-60
2021/08/29 03:26:47;;;;;;;19.38;12.45;;;;;;;;;;5003884;28;20045;-60
2021/08/29 03:29:23;;;;;;;19.17;12.80;;;;;;;;;;5003906;28;20073;-60
2021/08/29 03:31:50;;;;;;;20.25;13.10;;;;;;;;;;5014149;28;20057;-60
2021/08/29 03:34:18;;;;;;;20.65;12.45;;;;;;;;;;5028654;28;20436;-60
2021/08/29 03:36:45;;;;;;;22.33;13.23;;;;;;;;;;5030744;28;20096;-60
2021/08/29 03:39:15;;;;;;;23.75;11.20;;;;;;;;;;5014079;28;20049;-60
2021/08/29 03:41:43;;;;;;;15.02;11.02;;;;;;;;;;5011170;28;20050;-59
2021/08/29 03:44:13;;;;;;;19.40;11.18;;;;;;;;;;5001519;28;20104;-60
2021/08/29 03:46:40;;;;;;;19.33;12.50;;;;;;;;;;5012955;28;20054;-60
2021/08/29 03:49:25;;;;;;;21.97;11.37;;;;;;;;;;5012295;28;20069;-60
2021/08/29 03:51:52;;;;;;;22.13;12.95;;;;;;;;;;5015231;28;20087;-60
2021/08/29 03:54:18;;;;;;;25.90;12.07;;;;;;;;;;4994581;28;20085;-60
2021/08/29 03:56:45;;;;;;;23.95;11.40;;;;;;;;;;5027785;28;20144;-60
2021/08/29 03:59:12;;;;;;;21.23;13.32;;;;;;;;;;5054007;28;20036;-60
2021/08/29 04:01:38;;;;;;;21.67;11.85;;;;;;;;;;5054695;28;20047;-60
2021/08/29 04:04:05;;;;;;;18.05;11.38;;;;;;;;;;5054397;28;20084;-60
2021/08/29 04:06:35;;;;;;;17.98;12.05;;;;;;;;;;5065277;28;20052;-60
2021/08/29 04:09:06;;;;;;;19.83;12.32;;;;;;;;;;5063694;28;20098;-60
2021/08/29 04:11:33;;;;;;;20.88;12.40;;;;;;;;;;5064444;28;20061;-60
2021/08/29 04:13:59;;;;;;;18.88;11.95;;;;;;;;;;5054792;28;20036;-60
2021/08/29 04:16:28;;;;;;;20.50;12.38;;;;;;;;;;5052581;28;20092;-60
2021/08/29 04:19:02;;;;;;;22.40;11.98;;;;;;;;;;5054569;28;20504;-60
2021/08/29 04:21:30;;;;;;;19.15;11.43;;;;;;;;;;5056654;28;20594;-60
2021/08/29 04:23:57;;;;;;;18.58;11.38;;;;;;;;;;5042596;28;20396;-60
2021/08/29 04:26:30;;;;;;;19.98;11.70;;;;;;;;;;5059366;28;20091;-60
2021/08/29 04:28:56;;;;;;;16.50;11.40;;;;;;;;;;5060344;28;20185;-60
2021/08/29 04:31:24;;;;;;;16.95;11.63;;;;;;;;;;5068346;28;20064;-60
2021/08/29 04:33:56;;;;;;;22.48;11.93;;;;;;;;;;5064363;28;20107;-60
2021/08/29 04:36:49;;;;;;;18.67;11.20;;;;;;;;;;5066844;28;20106;-60
2021/08/29 04:39:33;;;;;;;21.48;11.48;;;;;;;;;;5057793;28;20080;-60
2021/08/29 04:41:59;;;;;;;17.27;11.70;;;;;;;;;;5059656;28;20070;-60
2021/08/29 04:44:27;;;;;;;23.10;12.18;;;;;;;;;;5065490;28;20051;-60
2021/08/29 04:46:55;;;;;;;18.50;12.02;;;;;;;;;;5052489;28;20056;-60
2021/08/29 04:49:21;;;;;;;21.63;12.88;;;;;;;;;;5067578;28;24097;-60
2021/08/29 04:51:48;;;;;;;22.00;11.77;;;;;;;;;;5066498;28;20174;-60
2021/08/29 04:54:15;;;;;;;22.35;13.02;;;;;;;;;;5059577;28;20068;-60
2021/08/29 04:56:42;;;;;;;20.63;12.10;;;;;;;;;;5058849;28;20049;-60
2021/08/29 04:59:11;;;;;;;20.20;11.48;;;;;;;;;;5056538;28;20045;-60
2021/08/29 05:01:39;;;;;;;18.65;11.65;;;;;;;;;;5067730;28;20071;-60
2021/08/29 05:04:06;;;;;;;19.00;11.80;;;;;;;;;;5068835;28;20052;-60
2021/08/29 05:06:32;;;;;;;22.58;11.90;;;;;;;;;;5056106;28;20107;-60
2021/08/29 05:08:59;;;;;;;20.52;12.10;;;;;;;;;;5058653;28;20146;-60
2021/08/29 05:11:25;;;;;;;25.55;12.35;;;;;;;;;;5058718;28;20060;-60
2021/08/29 05:13:52;;;;;;;23.38;12.98;;;;;;;;;;5056396;28;20114;-60
2021/08/29 05:16:18;;;;;;;20.88;12.07;;;;;;;;;;5035165;28;20092;-60
2021/08/29 05:18:46;;;;;;;20.67;12.85;;;;;;;;;;5066097;28;20064;-60
2021/08/29 05:21:17;;;;;;;18.65;12.07;;;;;;;;;;5058878;28;20049;-60
2021/08/29 05:24:19;;;;;;;18.27;11.38;;;;;;;;;;5048511;28;20517;-60
2021/08/29 05:26:51;;;;;;;25.35;12.88;;;;;;;;;;5032549;28;20080;-60
2021/08/29 05:29:18;;;;;;;26.63;14.43;;;;;;;;;;5034394;28;20486;-60
2021/08/29 05:31:46;;;;;;;32.17;16.70;;;;;;;;;;5036667;28;20087;-60
2021/08/29 05:34:18;;;;;;;27.77;14.52;;;;;;;;;;5036484;28;20071;-61
2021/08/29 05:36:44;;;;;;;28.88;16.08;;;;;;;;;;5037431;28;20049;-60
2021/08/29 05:39:13;;;;;;;24.48;15.27;;;;;;;;;;5036479;28;20103;-61
2021/08/29 05:41:40;;;;;;;26.20;16.60;;;;;;;;;;5053104;28;20052;-60
2021/08/29 05:44:06;;;;;;;30.55;16.55;;;;;;;;;;5052604;28;20079;-60
2021/08/29 05:46:38;;;;;;;34.72;16.02;;;;;;;;;;5036582;28;20125;-60
2021/08/29 05:49:04;;;;;;;33.45;18.08;;;;;;;;;;5036315;28;20388;-60
2021/08/29 05:51:32;;;;;;;27.70;16.92;;;;;;;;;;5037124;28;20140;-60
2021/08/29 05:53:58;;;;;;;32.58;18.67;;;;;;;;;;5052652;28;20507;-60
2021/08/29 05:56:25;;;;;;;31.27;17.55;;;;;;;;;;5036163;28;20041;-60
2021/08/29 05:58:52;;;;;;;35.80;19.20;;;;;;;;;;5056101;28;20044;-61
2021/08/29 06:01:21;;;;;;;45.97;20.80;;;;;;;;;;5062018;28;20103;-60
2021/08/29 06:03:48;;;;;;;31.30;18.80;;;;;;;;;;5072105;28;20123;-61
2021/08/29 06:06:35;;;;;;;30.95;19.90;;;;;;;;;;5071160;28;20134;-59
2021/08/29 06:09:03;;;;;;;34.47;18.67;;;;;;;;;;5069738;28;20044;-60
2021/08/29 06:11:29;;;;;;;30.23;17.55;;;;;;;;;;5067375;28;20037;-60
2021/08/29 06:13:56;;;;;;;29.58;17.40;;;;;;;;;;5069540;28;20067;-61
2021/08/29 06:16:26;;;;;;;27.08;16.48;;;;;;;;;;5065594;28;20052;-61
2021/08/29 06:18:53;;;;;;;27.52;17.67;;;;;;;;;;5070420;28;20086;-60
2021/08/29 06:21:20;;;;;;;28.10;17.88;;;;;;;;;;5069705;28;20072;-60
2021/08/29 06:23:47;;;;;;;27.05;17.40;;;;;;;;;;5068124;28;20068;-62
2021/08/29 06:26:32;;;;;;;27.10;17.48;;;;;;;;;;5070585;28;20044;-62
2021/08/29 06:29:37;;;;;;;25.25;16.50;;;;;;;;;;5050819;28;20106;-62
2021/08/29 06:32:22;;;;;;;27.40;16.38;;;;;;;;;;5047888;28;20053;-62
2021/08/29 06:34:55;;;;;;;25.33;16.00;;;;;;;;;;5034258;28;20064;-62
2021/08/29 06:37:29;;;;;;;26.95;16.77;;;;;;;;;;5034149;28;20456;-62
2021/08/29 06:39:56;;;;;;;25.50;16.25;;;;;;;;;;5031943;28;20041;-62
2021/08/29 06:42:23;;;;;;;24.25;16.42;;;;;;;;;;5032171;28;20161;-62
2021/08/29 06:44:57;;;;;;;25.05;15.70;;;;;;;;;;5032375;28;20091;-62
2021/08/29 06:47:42;;;;;;;;;;;;;;;;;;5045706;28;20049;-62
2021/08/29 06:50:37;;;;;;;23.73;15.47;;;;;;;;;;5023161;28;19969;-63
2021/08/29 06:53:22;;;;;;;25.33;14.60;;;;;;;;;;5017041;28;20049;-62
2021/08/29 06:55:58;;;;;;;22.92;14.65;;;;;;;;;;5027068;28;20081;-62
2021/08/29 06:58:52;;;;;;;19.77;14.50;;;;;;;;;;5027894;28;20042;-62
2021/08/29 07:01:18;;;;;;;25.40;14.00;;;;;;;;;;5021984;28;20088;-63
2021/08/29 07:03:45;;;;;;;23.75;14.38;;;;;;;;;;5013094;28;20041;-62
2021/08/29 07:06:12;;;;;;;21.30;14.70;;;;;;;;;;5012650;28;20488;-63
2021/08/29 07:09:01;;;;;;;23.30;14.93;;;;;;;;;;5028015;28;20052;-63
2021/08/29 07:11:28;;;;;;;21.23;15.32;;;;;;;;;;5007126;28;20052;-63
2021/08/29 07:14:13;;;;;;;;;;;;;;;;;;5029019;28;20076;-63
2021/08/29 07:16:39;;;;;;;21.85;14.27;;;;;;;;;;5028160;28;19928;-62
2021/08/29 07:19:06;;;;;;;19.98;13.40;;;;;;;;;;5013052;28;20041;-63
2021/08/29 07:22:10;;;;;;;20.25;13.93;;;;;;;;;;5029308;28;20077;-63
2021/08/29 07:24:55;;;;;;;17.25;12.82;;;;;;;;;;5027334;28;20045;-62
2021/08/29 07:27:40;;;;;;;18.25;11.80;;;;;;;;;;5054239;28;20144;-63
2021/08/29 07:30:25;;;;;;;17.38;12.52;;;;;;;;;;5064962;28;20044;-63
2021/08/29 07:33:05;;;;;;;17.77;13.18;;;;;;;;;;5064369;28;20110;-63
2021/08/29 07:35:39;;;;;;;17.38;13.18;;;;;;;;;;5065778;28;20174;-63
2021/08/29 07:38:23;;;;;;;;;;;;;;;;;;5069461;28;20119;-63
2021/08/29 07:40:50;;;;;;;18.77;11.90;;;;;;;;;;5065226;28;19920;-63
2021/08/29 07:43:16;;;;;;;14.60;11.38;;;;;;;;;;5069722;28;20494;-63
2021/08/29 07:45:44;;;;;;;14.50;10.60;;;;;;;;;;5065069;28;20068;-63
2021/08/29 07:48:10;;;;;;;15.18;11.18;;;;;;;;;;5066088;28;20047;-63
2021/08/29 07:50:37;;;;;;;14.30;10.52;;;;;;;;;;5084005;28;20114;-63
2021/08/29 07:53:03;;;;;;;14.77;10.60;;;;;;;;;;5063830;28;20104;-63
2021/08/29 07:55:48;;;;;;;13.98;10.30;;;;;;;;;;5067105;28;20045;-63
2021/08/29 07:58:24;;;;;;;13.65;9.95;;;;;;;;;;5064439;28;20068;-63
2021/08/29 08:00:59;;;;;;;10.80;9.00;;;;;;;;;;5069122;28;20078;-63
2021/08/29 08:03:48;;;;;;;13.93;10.00;;;;;;;;;;5015610;28;20074;-63
2021/08/29 08:06:50;;;;;;;12.77;10.13;;;;;;;;;;4950997;29;20632;-63
2021/08/29 08:09:51;;;;;;;12.98;9.70;;;;;;;;;;4951456;29;20533;-63
2021/08/29 08:12:47;;;;;;;15.35;10.68;;;;;;;;;;4917001;29;20047;-63
2021/08/29 08:15:15;;;;;;;13.60;10.05;;;;;;;;;;4915096;29;20124;-63
2021/08/29 08:17:41;;;;;;;14.20;9.95;;;;;;;;;;4902022;29;20087;-63
2021/08/29 08:20:08;;;;;;;13.18;10.52;;;;;;;;;;4903090;29;20454;-63
2021/08/29 08:22:37;;;;;;;13.82;10.45;;;;;;;;;;4916952;29;20083;-63
2021/08/29 08:25:25;;;;;;;14.00;10.07;;;;;;;;;;4900635;29;20506;-63
2021/08/29 08:28:24;;;;;;;14.80;10.45;;;;;;;;;;4871439;29;20236;-63
2021/08/29 08:31:09;;;;;;;12.98;9.95;;;;;;;;;;4876392;29;20155;-63
2021/08/29 08:33:55;;;;;;;15.73;10.00;;;;;;;;;;4873114;29;20092;-63
2021/08/29 08:36:40;;;;;;;11.20;8.50;;;;;;;;;;4860511;29;20052;-63
2021/08/29 08:39:20;;;;;;;13.95;9.30;;;;;;;;;;4860193;29;20181;-63
2021/08/29 08:42:12;;;;;;;12.48;8.70;;;;;;;;;;4968908;28;20447;-63
2021/08/29 08:44:57;;;;;;;11.35;9.45;;;;;;;;;;4966775;28;20094;-63
2021/08/29 08:47:47;;;;;;;13.93;10.65;;;;;;;;;;4931014;29;20055;-63
2021/08/29 08:50:35;;;;;;;12.15;9.85;;;;;;;;;;4943640;29;20157;-63
2021/08/29 08:53:23;;;;;;;17.90;12.13;;;;;;;;;;4942473;29;20048;-63
2021/08/29 08:56:08;;;;;;;10.80;8.35;;;;;;;;;;4944329;29;20078;-63
2021/08/29 08:58:57;;;;;;;10.88;8.00;;;;;;;;;;4933951;29;20086;-64
2021/08/29 09:01:42;;;;;;;10.45;7.88;;;;;;;;;;4935284;29;20079;-64
2021/08/29 09:04:29;;;;;;;11.07;7.18;;;;;;;;;;4971848;28;20050;-63
2021/08/29 09:06:55;;;;;;;12.25;7.50;;;;;;;;;;4990287;28;20093;-63
2021/08/29 09:09:29;;;;;;;9.38;7.47;;;;;;;;;;4972280;28;20077;-64
2021/08/29 09:11:57;;;;;;;10.18;7.50;;;;;;;;;;4968676;28;20479;-63
2021/08/29 09:14:38;;;;;;;9.23;7.22;;;;;;;;;;4971516;28;20225;-63
2021/08/29 09:17:20;;;;;;;8.68;6.78;;;;;;;;;;4970299;28;20129;-63
2021/08/29 09:19:46;;;;;;;10.63;7.03;;;;;;;;;;5018055;28;20049;-63
2021/08/29 09:22:24;;;;;;;9.38;6.82;;;;;;;;;;5005334;28;20531;-63
2021/08/29 09:24:52;;;;;;;8.95;6.60;;;;;;;;;;5046760;28;20060;-63
2021/08/29 09:27:49;;;;;;;7.45;6.13;;;;;;;;;;5065720;28;20080;-63
2021/08/29 09:30:32;;;;;;;9.85;6.38;;;;;;;;;;5064168;28;20052;-63
2021/08/29 09:33:03;;;;;;;7.57;5.85;;;;;;;;;;5064749;28;20087;-63
2021/08/29 09:35:31;;;;;;;7.18;6.20;;;;;;;;;;5064625;28;20384;-63
2021/08/29 09:38:17;;;;;;;9.38;5.95;;;;;;;;;;5056187;28;20080;-63
2021/08/29 09:41:04;;;;;;;8.95;5.38;;;;;;;;;;5053696;28;20040;-63
2021/08/29 09:43:51;;;;;;;8.02;6.03;;;;;;;;;;5068887;28;20076;-63
2021/08/29 09:46:20;;;;;;;7.28;5.82;;;;;;;;;;5062468;28;20045;-64
2021/08/29 09:49:05;;;;;;;6.53;5.20;;;;;;;;;;5067189;28;20083;-63
2021/08/29 09:51:51;;;;;;;7.03;5.82;;;;;;;;;;5064473;28;20068;-63
2021/08/29 09:54:36;;;;;;;7.82;6.18;;;;;;;;;;5066500;28;20048;-63
2021/08/29 09:57:28;;;;;;;7.40;5.10;;;;;;;;;;5047294;28;20047;-63
2021/08/29 10:00:12;;;;;;;6.20;5.32;;;;;;;;;;5029535;28;20056;-63
2021/08/29 10:03:16;;;;;;;7.05;5.40;;;;;;;;;;5047349;28;20503;-63
2021/08/29 10:06:11;;;;;;;6.00;5.40;;;;;;;;;;5031078;28;20545;-63
2021/08/29 10:08:41;;;;;;;7.25;5.70;;;;;;;;;;5027414;28;20140;-63
2021/08/29 10:11:20;;;;;;;7.00;6.00;;;;;;;;;;5027519;28;20076;-63
2021/08/29 10:13:47;;;;;;;6.75;5.43;;;;;;;;;;5030255;28;20041;-63
2021/08/29 10:16:16;;;;;;;8.10;5.75;;;;;;;;;;5034617;28;20080;-63
2021/08/29 10:18:47;;;;;;;6.55;5.30;;;;;;;;;;5051475;28;20064;-63
2021/08/29 10:21:43;;;;;;;8.73;6.20;;;;;;;;;;4980729;28;20042;-63
2021/08/29 10:24:11;;;;;;;9.05;5.90;;;;;;;;;;4972928;28;20084;-63
2021/08/29 10:26:38;;;;;;;7.22;6.20;;;;;;;;;;4972096;28;20117;-63
2021/08/29 10:29:28;;;;;;;7.53;6.03;;;;;;;;;;4984811;28;20468;-63
2021/08/29 10:32:06;;;;;;;11.15;7.22;;;;;;;;;;4990053;28;20509;-63
2021/08/29 10:34:36;;;;;;;8.60;7.25;;;;;;;;;;4975584;28;20074;-62
2021/08/29 10:37:03;;;;;;;7.47;6.00;;;;;;;;;;5027384;28;20057;-63
2021/08/29 10:40:05;;;;;;;7.80;5.47;;;;;;;;;;5010553;28;20105;-64
2021/08/29 10:42:58;;;;;;;7.35;5.85;;;;;;;;;;4968473;28;20062;-63
2021/08/29 10:45:26;;;;;;;8.48;5.68;;;;;;;;;;4972795;28;20070;-63
2021/08/29 10:48:11;;;;;;;6.80;5.78;;;;;;;;;;4970247;28;20054;-63
2021/08/29 10:50:52;;;;;;;6.80;5.57;;;;;;;;;;4955256;28;20613;-63
2021/08/29 10:53:34;;;;;;;6.65;5.50;;;;;;;;;;4988127;28;20485;-63
2021/08/29 10:56:15;;;;;;;6.45;5.00;;;;;;;;;;4987593;28;20635;-64
2021/08/29 10:58:44;;;;;;;8.60;5.88;;;;;;;;;;5004360;28;20078;-63
2021/08/29 11:01:39;;;;;;;6.60;5.45;;;;;;;;;;5004390;28;20100;-62
2021/08/29 11:04:35;;;;;;;6.18;5.18;;;;;;;;;;5003838;28;20527;-64
2021/08/29 11:07:06;;;;;;;6.60;5.00;;;;;;;;;;4993861;28;20073;-63
2021/08/29 11:12:01;;;;;;;7.63;5.05;;;;;;;;;;4991333;28;20050;-63
2021/08/29 11:14:38;;;;;;;6.45;5.35;;;;;;;;;;5025906;28;20547;-66
2021/08/29 11:17:10;;;;;;;9.10;4.93;;;;;;;;;;5024059;28;20053;-66
2021/08/29 11:19:55;;;;;;;6.63;5.13;;;;;;;;;;5042069;28;20068;-63
2021/08/29 11:22:46;;;;;;;6.53;5.28;;;;;;;;;;5063854;28;20060;-63
2021/08/29 11:25:31;;;;;;;8.07;5.07;;;;;;;;;;5070123;28;20486;-62
2021/08/29 11:28:28;;;;;;;7.85;5.35;;;;;;;;;;5071746;28;20051;-63
2021/08/29 11:31:07;;;;;;;5.82;4.63;;;;;;;;;;5070929;28;20079;-63
2021/08/29 11:33:46;;;;;;;8.05;4.70;;;;;;;;;;5057013;28;20076;-63
2021/08/29 11:36:28;;;;;;;5.78;5.13;;;;;;;;;;5054833;28;20119;-64
2021/08/29 11:39:27;;;;;;;6.53;5.47;;;;;;;;;;5058786;28;20045;-64
2021/08/29 11:42:12;;;;;;;5.85;4.53;;;;;;;;;;5057228;28;20095;-63
2021/08/29 11:44:39;;;;;;;6.25;4.93;;;;;;;;;;5057451;28;20045;-64
2021/08/29 11:47:06;;;;;;;5.22;4.72;;;;;;;;;;5057306;28;20064;-64
2021/08/29 11:50:02;;;;;;;6.18;4.90;;;;;;;;;;5059754;28;20036;-62
2021/08/29 11:52:30;;;;;;;5.70;5.03;;;;;;;;;;5053080;28;20075;-63
2021/08/29 11:55:04;;;;;;;6.20;4.43;;;;;;;;;;5067692;28;20115;-62
2021/08/29 11:57:31;;;;;;;9.50;5.30;;;;;;;;;;5058419;28;20503;-63
2021/08/29 12:00:10;;;;;;;5.90;5.13;;;;;;;;;;5059471;28;20521;-62
2021/08/29 12:02:48;;;;;;;7.68;5.00;;;;;;;;;;5059575;28;20125;-62
2021/08/29 12:05:19;;;;;;;5.07;4.55;;;;;;;;;;5064484;28;20044;-63
2021/08/29 12:08:04;;;;;;;5.20;4.70;;;;;;;;;;5055795;28;20037;-63
2021/08/29 12:10:52;;;;;;;8.13;4.40;;;;;;;;;;5060620;28;20041;-63
2021/08/29 12:13:38;;;;;;;5.95;4.22;;;;;;;;;;5068333;28;20055;-63
2021/08/29 12:16:25;;;;;;;5.20;3.78;;;;;;;;;;5055447;28;20564;-63
2021/08/29 12:18:55;;;;;;;5.70;4.13;;;;;;;;;;5070705;28;20049;-64
2021/08/29 12:21:43;;;;;;;6.13;4.53;;;;;;;;;;5071958;28;20044;-63
2021/08/29 12:24:36;;;;;;;7.25;3.53;;;;;;;;;;5070964;28;20437;-64
2021/08/29 12:27:07;;;;;;;6.55;3.97;;;;;;;;;;5069467;28;20080;-63
2021/08/29 12:29:53;;;;;;;5.60;4.60;;;;;;;;;;5064748;28;20072;-64
2021/08/29 12:32:21;;;;;;;5.10;4.00;;;;;;;;;;5060845;28;20045;-63
2021/08/29 12:34:54;;;;;;;6.28;4.35;;;;;;;;;;5069214;28;20044;-61
2021/08/29 12:37:20;;;;;;;4.72;4.10;;;;;;;;;;5065885;28;20072;-63
2021/08/29 12:40:07;;;;;;;6.95;4.10;;;;;;;;;;5069584;28;20418;-65
2021/08/29 12:42:36;;;;;;;5.82;4.30;;;;;;;;;;5053185;28;20068;-63
2021/08/29 12:45:09;;;;;;;;;;;;;;;;;;5057138;28;20079;-64
2021/08/29 12:47:35;;;;;;;5.63;4.00;;;;;;;;;;5060199;28;19920;-64
2021/08/29 12:50:03;;;;;;;4.60;3.85;;;;;;;;;;5063458;28;20045;-64
2021/08/29 12:52:34;;;;;;;5.72;3.58;;;;;;;;;;5061099;28;20098;-65
2021/08/29 12:55:00;;;;;;;6.90;4.20;;;;;;;;;;5053431;28;20128;-64
2021/08/29 12:57:27;;;;;;;4.53;3.80;;;;;;;;;;5063720;28;20055;-64
2021/08/29 12:59:57;;;;;;;4.80;3.88;;;;;;;;;;5059831;28;20084;-64
2021/08/29 13:02:29;;;;;;;5.00;3.40;;;;;;;;;;5056540;28;20432;-64
2021/08/29 13:04:57;;;;;;;6.80;4.93;;;;;;;;;;5056624;28;20097;-64
2021/08/29 13:07:24;;;;;;;7.65;4.05;;;;;;;;;;5053338;28;20075;-64
2021/08/29 13:09:53;;;;;;;5.35;3.80;;;;;;;;;;5056588;28;20045;-63
2021/08/29 13:12:29;;;;;;;6.20;4.35;;;;;;;;;;5056844;28;20559;-64
2021/08/29 13:14:58;;;;;;;4.53;3.97;;;;;;;;;;5058268;28;20044;-64
2021/08/29 13:17:25;;;;;;;7.38;4.20;;;;;;;;;;5056522;28;20910;-64
2021/08/29 13:20:01;;;;;;;6.13;4.22;;;;;;;;;;5055915;28;20052;-64
2021/08/29 13:22:33;;;;;;;10.48;3.50;;;;;;;;;;5052869;28;20537;-65
2021/08/29 13:25:15;;;;;;;4.35;3.28;;;;;;;;;;5055483;28;20041;-65
2021/08/29 13:27:43;;;;;;;4.95;3.60;;;;;;;;;;5056492;28;20069;-64
2021/08/29 13:30:09;;;;;;;4.43;3.45;;;;;;;;;;5056671;28;20054;-66
2021/08/29 13:32:37;;;;;;;4.28;3.30;;;;;;;;;;5056550;28;20041;-65
2021/08/29 13:35:11;;;;;;;4.03;3.35;;;;;;;;;;5056572;28;20120;-65
2021/08/29 13:37:37;;;;;;;;;;;;;;;;;;5054125;28;20430;-65
2021/08/29 13:40:04;;;;;;;3.97;3.13;;;;;;;;;;5063784;28;19921;-66
2021/08/29 13:42:31;;;;;;;5.13;3.25;;;;;;;;;;5054914;28;20080;-66
2021/08/29 13:44:58;;;;;;;3.95;3.17;;;;;;;;;;5056346;28;20098;-65
2021/08/29 13:47:25;;;;;;;4.85;3.03;;;;;;;;;;5056219;28;20045;-64
2021/08/29 13:49:53;;;;;;;5.53;2.90;;;;;;;;;;5060753;28;20068;-62
2021/08/29 13:52:21;;;;;;;7.05;3.28;;;;;;;;;;5072942;28;20073;-64
2021/08/29 13:54:47;;;;;;;4.13;3.17;;;;;;;;;;5059987;28;20053;-65
2021/08/29 13:57:14;;;;;;;4.18;3.28;;;;;;;;;;5069717;28;20082;-64
2021/08/29 13:59:40;;;;;;;4.05;3.00;;;;;;;;;;5072388;28;20068;-65
2021/08/29 14:02:06;;;;;;;2.92;2.63;;;;;;;;;;5071609;28;20041;-65
2021/08/29 14:04:33;;;;;;;4.80;3.33;;;;;;;;;;5058960;28;20072;-65
2021/08/29 14:06:59;;;;;;;3.90;2.85;;;;;;;;;;5070086;28;20044;-64
2021/08/29 14:09:26;;;;;;;4.18;2.90;;;;;;;;;;5068245;28;20040;-65
2021/08/29 14:11:53;;;;;;;3.45;2.85;;;;;;;;;;5068885;28;20088;-64
2021/08/29 14:14:19;;;;;;;3.50;2.92;;;;;;;;;;5066422;28;20049;-65
2021/08/29 14:16:45;;;;;;;8.90;3.58;;;;;;;;;;5059781;28;20053;-65
2021/08/29 14:19:12;;;;;;;5.65;3.50;;;;;;;;;;5062692;28;20083;-65
2021/08/29 14:21:38;;;;;;;5.95;4.55;;;;;;;;;;5054885;28;20131;-65
2021/08/29 14:24:05;;;;;;;5.70;3.45;;;;;;;;;;5056253;28;20044;-65
2021/08/29 14:26:32;;;;;;;4.40;3.63;;;;;;;;;;5057649;28;20518;-65
2021/08/29 14:28:58;;;;;;;6.38;4.63;;;;;;;;;;5055698;28;20068;-65
2021/08/29 14:31:24;;;;;;;4.68;3.72;;;;;;;;;;5054098;28;20044;-65
2021/08/29 14:33:51;;;;;;;5.82;4.38;;;;;;;;;;5068428;28;20466;-64
2021/08/29 14:36:17;;;;;;;5.20;4.18;;;;;;;;;;5060609;28;20522;-65
2021/08/29 14:38:43;;;;;;;4.78;4.00;;;;;;;;;;5059254;28;20041;-64
2021/08/29 14:41:10;;;;;;;4.85;3.95;;;;;;;;;;5059113;28;20120;-64
2021/08/29 14:43:36;;;;;;;5.82;3.70;;;;;;;;;;5056952;28;20036;-64
2021/08/29 14:46:02;;;;;;;4.22;3.33;;;;;;;;;;5056927;28;20384;-64
2021/08/29 14:48:29;;;;;;;4.35;3.00;;;;;;;;;;5069055;28;20071;-63
2021/08/29 14:50:55;;;;;;;5.10;3.25;;;;;;;;;;5062507;28;20052;-64
2021/08/29 14:53:21;;;;;;;4.68;3.60;;;;;;;;;;5058556;28;20403;-64
2021/08/29 14:55:48;;;;;;;3.92;3.05;;;;;;;;;;5058975;28;20040;-64
2021/08/29 14:58:15;;;;;;;5.93;3.20;;;;;;;;;;5055480;28;20487;-64
2021/08/29 15:00:41;;;;;;;3.80;3.17;;;;;;;;;;5069623;28;20045;-64
2021/08/29 15:03:07;;;;;;;5.03;3.80;;;;;;;;;;5061467;28;20123;-64
2021/08/29 15:05:34;;;;;;;6.88;4.07;;;;;;;;;;5058658;28;20056;-64
2021/08/29 15:08:00;;;;;;;6.40;3.47;;;;;;;;;;5058995;28;20068;-63